Bensenville, Illinois
Current Conditions -  °F | °C
As of 3:51 PM on Thursday 18 Dec 2014 (Local Time) from KORD Reporting Station
Overcast Overcast  
Wind Chill: -5°   Ceiling: 2600
Heat Index: -2°   Visibility: 9mi
Dew Point: -7°   Wind: 5mph
Humidity: 69%   Direction: 290°WNW
Pressure: 30.22"   Gusts: NA
Location:  41.96°N, 87.94°W
Report Text: KORD 182151Z 29004KT 9SM OVC026 M02/M07 A3022 RMK AO2 SLP243 T10221072
Loading
Personal Weather Stations






























Interactive Weather Map New forecast layout! Learn more

10-Day Weather Forecast

Advertisements
Track Severe Weather on mobile